Aviation Digital Data Service (ADDS)

Output produced by TAFs form (1419 UTC 16 July 2018)
found at http://www.aviationweather.gov/adds/tafs/
 
METAR text: ZBTJ 161400Z 06002MPS 010V110 CAVOK 28/23 Q1005 NOSIG
Conditions at: ZBTJ (TIANJIN/ZHANGGUI, CN) observed 1400 UTC 16 July 2018
Temperature: 28.0°C (82°F)
Dewpoint: 23.0°C (73°F) [RH = 74%]
Pressure (altimeter): 29.68 inches Hg (1005.0 mb)
Winds: from the ENE (60 degrees) at 5 MPH (4 knots; 2.1 m/s)
Visibility: 6 or more miles (10+ km)
Ceiling: ceiling and visibility are OK
Clouds: unknown
Weather: no significant weather observed at this time

Forecast for: ZBTJ (TIANJIN/ZHANGGUI, CN)
Text: TAF ZBTJ 160904Z 1612/1712 18004MPS 5000 HZ FEW030CB BKN040 TX34/1707Z TN27/1621Z
Forecast period: 1200 UTC 16 July 2018 to 1200 UTC 17 July 2018
Forecast type: FROM: standard forecast or significant change
Winds: from the S (180 degrees) at 9 MPH (8 knots; 4.2 m/s)
Visibility: 3 miles (5 km)
Ceiling: 4000 feet AGL
Clouds: few clouds at 3000 feet AGL
broken clouds at 4000 feet AGL
Weather: HZ  (haze)
Text: TEMPO 1612/1616 -TSRA
Forecast period: 1200 to 1600 UTC 16 July 2018
Forecast type: TEMPORARY: The following changes expected for less than half the time period
Weather: -TSRA  (light rain associated with thunderstorm(s))